Scroll down
FLIGHT INFORMATION
Delta Air Lines

DAL1272

At Arrival Gate

KDEN
 KMSP
DATE: 2020-11-18
GATE: 
GATE DEPARTURE: 00:52
TAKEOFF: 01:07
DATE: 2020-11-18
GATE: H5
LANDING: 02:33
GATE ARRIVAL: 02:37
FLIGHT DATA
Crew: 
Speed: 
465 kts
Altitude: 
39,018 ft
Stage Length: 
589.8 nm
Block Time: 
1.8 hrs
Flight Time: 
1.4 hrs
Fuel Used: 
8,139 lb
Cleared Route: KDEN MUGBE WAZEE LODOE RINKR ELCEE YOKES LNGWD CHUWY ANW SSWAN ERICX TORGY OFSON HMBRG CONIA SPUKI KRUGG RW12R
TRACK DATA
50,000 ft 1,000 kts
AIRCRAFT INFO AND CUMULATIVE STATS
Aircraft Type: 
B739ERSSW
Registration: 
SELCAL: 
FLHM
MSN/LN: 
31968 / 5849
Operator: 
Total Flights: 
1
Total Block Time: 
1.6 hrs
Total Flight Time: 
1.4 hrs
Total Fuel Time: 
8,139 lb
DATALINK LOG | Newest first | Current as of: 2020-12-02 07:01:38
LABEL SEQUENCE CONTENT Dn/Up
5Z433619 NOV 20 02:42:54z / FLT DECK GOOD / ACF POS IMPROPER SPOT / GRND SERVICES GOOD / MAINT FAILURES ACTIVE▼ Dn
QD383102:37 4.7▼ Dn
QC332902:33▼ Dn
2U1519KMSP 181753Z 16013KT 10SM BKN250 06/M01 A2992 RMK AO2 SLP140 T00611011 10061 20011 58033▲ Up
2S1612KMSP▼ Dn
GA1218GATE H5▲ Up
GR1208KMSP 02:32 MAAS 00 YP/UM 00/00 WCHR/S/C 00/00/00 HI-VAL NO DIPL/VIP NO▼ Dn
QB080401:07▼ Dn
QA535000:52 13▼ Dn
2U3808KDEN 181553Z 21013KT 10SM FEW100 SCT150 BKN220 17/M06 A2999 RMK AO2 SLP111 T01721056▲ Up
2S3837KDEN▼ Dn
A32537CLEARED TO KMSP VIA CHUWY1 CHUWY ANW SSWAN TORGY3. SQUAWK 1416.▲ Up
UM2122544KDEN ATIS - DEN DEP INFO T 1553Z. 20013KT 10SM FEW100 SCT150 BKN220 17/M06 A2999 (TWO NINER NINER NINER) RMK AO2 SLP111. HAZUS WX INFO FOR CO, KS, NE, WY AVBL FM FLT SVC. PIREP 35 SOUTH WEST DEN, 1515Z B737 RPRTD MDT, TB, BTN 16THSD AND 14 THSD. DEPG RWY8, RWY17L, RWY25. ACFT MUST READ BACK ASSIGNED HDG OR FIRST WPT WITH TAKE OFF CLNC. NOTAMS... TWY L CLSD BTN TWY Z AND TWY EE .. EE DEE ICE PAD CLOSED. BIRD ACTIVITY VICINITY ARPT. ALL ACFT IN CONCOURSE AREA ADZ RAMP TWR OF DP AND TRSN. ...ADVS YOU HAVE INFO T.▲ Up
DM792534 ATIS KDEN D▼ Dn
Q02426[LINK ACK]▲ Up
Q02426[LINK TEST]▼ Dn


AIRCRAFT HISTORY
FLIGHT DATE FLIGHT NO. ORIGIN DESTINATION CLEARED ROUTE BLOCK TIME FLIGHT TIME FUEL USED PILOT
2020-11-18DAL1272KDEN KMSP KDEN MUGBE WAZEE LODOE RINKR ELCEE YOKES LNGWD CHUWY ANW SSWAN ERICX TORGY OFSON HMBRG CONIA SPUKI KRUGG RW12R1.8 hrs1.4 hrs8,139 lbNiklas Graefe